Acadie — FV7722 — position and weather

sailwx.info

Track history (hours):
 
Tides and Currents Weather Stations Pressure Air Temp Water Temp Dewpoint Dewpoint Depression Visibility Wind Speed Wind Dir Waves Ship Positions

Acadie

Last reported at 2017-Jan-03 16:11 UTC. Time now 2017-Feb-24 17:43 UTC.
Position N 47°44' W 003°22'.
Warning: this ship's position is 52 days out of date.

Length 45 m.

Type: Passenger vessel. MMSI: 227002780.

Date/timePositionNaut miles runAvg speedWind from/ knotsBaromVisibWave heightAir tempDewpointWater temp
2017-Jan-03 16:11N 47°44' W 003°22'4 5.9
2017-Jan-03 15:33N 47°41' W 003°25'4 4.3
2017-Jan-03 14:33N 47°44' W 003°21'0 0.4
2017-Jan-03 13:33N 47°44' W 003°21'7 7.0
2017-Jan-03 12:33N 47°39' W 003°27'5 4.9
2017-Jan-03 11:33N 47°42' W 003°22'2 2.2
2017-Jan-03 10:33N 47°44' W 003°21'7 7.0
2017-Jan-03 09:33N 47°39' W 003°27'6 6.0
2017-Jan-03 08:33N 47°44' W 003°22'  
Track history (hours):
 
Tides and Currents Weather Stations Pressure Air Temp Water Temp Dewpoint Dewpoint Depression Visibility Wind Speed Wind Dir Waves Ship Positions

Acadie

Last reported at 2017-Jan-03 16:11 UTC. Time now 2017-Feb-24 17:43 UTC.
Position N 47°44' W 003°22'.
Warning: this ship's position is 52 days out of date.

Length 45 m.

Type: Passenger vessel. MMSI: 227002780.

Date/timePositionNaut miles runAvg speedWind from/ knotsBaromVisibWave heightAir tempDewpointWater temp
2017-Jan-03 16:11N 47°44' W 003°22'4 5.9
2017-Jan-03 15:33N 47°41' W 003°25'4 4.3
2017-Jan-03 14:33N 47°44' W 003°21'0 0.4
2017-Jan-03 13:33N 47°44' W 003°21'7 7.0
2017-Jan-03 12:33N 47°39' W 003°27'5 4.9
2017-Jan-03 11:33N 47°42' W 003°22'2 2.2
2017-Jan-03 10:33N 47°44' W 003°21'7 7.0
2017-Jan-03 09:33N 47°39' W 003°27'6 6.0
2017-Jan-03 08:33N 47°44' W 003°22'  

Dump ship's entire track history